createdAt,value
2018-09-12T00:01:35.111Z,13.70
2018-09-12T00:04:05.196Z,13.70
2018-09-12T00:06:33.957Z,13.70
2018-09-12T00:09:03.121Z,13.70
2018-09-12T00:11:32.352Z,13.70
2018-09-12T00:14:01.520Z,13.70
2018-09-12T00:16:30.574Z,13.60
2018-09-12T00:18:59.313Z,13.60
2018-09-12T00:21:30.075Z,13.60
2018-09-12T00:23:59.357Z,13.60
2018-09-12T00:26:30.182Z,13.60
2018-09-12T00:29:01.494Z,13.50
2018-09-12T00:31:31.442Z,13.50
2018-09-12T00:34:00.295Z,13.40
2018-09-12T00:36:30.561Z,13.40
2018-09-12T00:38:59.610Z,13.30
2018-09-12T00:41:29.715Z,13.30
2018-09-12T00:43:59.847Z,13.20
2018-09-12T00:46:28.769Z,13.10
2018-09-12T00:48:57.548Z,13.10
2018-09-12T00:51:27.303Z,13.00
2018-09-12T00:53:56.337Z,13.00
2018-09-12T00:56:26.032Z,12.90
2018-09-12T00:58:55.784Z,12.90
2018-09-12T01:01:25.738Z,12.80
2018-09-12T01:03:54.978Z,12.80
2018-09-12T01:06:25.976Z,12.80
2018-09-12T01:08:56.218Z,12.70
2018-09-12T01:13:56.029Z,12.70
2018-09-12T01:16:26.177Z,12.70
2018-09-12T01:18:55.165Z,12.70
2018-09-12T01:21:24.229Z,12.70
2018-09-12T01:23:53.605Z,12.70
2018-09-12T01:28:56.474Z,12.70
2018-09-12T01:31:25.966Z,12.70
2018-09-12T01:33:55.062Z,12.70
2018-09-12T01:36:24.731Z,12.70
2018-09-12T01:38:55.809Z,12.70
2018-09-12T01:41:24.989Z,12.70
2018-09-12T01:43:54.219Z,12.70
2018-09-12T01:46:23.545Z,12.70
2018-09-12T01:48:53.204Z,12.70
2018-09-12T01:51:22.189Z,12.60
2018-09-12T01:53:51.580Z,12.60
2018-09-12T01:56:21.032Z,12.60
2018-09-12T02:01:35.105Z,12.60
2018-09-12T02:04:04.218Z,12.50
2018-09-12T02:06:33.257Z,12.50
2018-09-12T02:09:02.309Z,12.50
2018-09-12T02:11:33.120Z,12.40
2018-09-12T02:14:03.183Z,12.40
2018-09-12T02:16:32.106Z,12.40
2018-09-12T02:19:00.498Z,12.40
2018-09-12T02:21:29.303Z,12.40
2018-09-12T02:23:58.449Z,12.40
2018-09-12T02:26:28.063Z,12.40
2018-09-12T02:28:56.708Z,12.30
2018-09-12T02:31:25.569Z,12.30
2018-09-12T02:33:55.172Z,12.30
2018-09-12T02:36:26.464Z,12.30
2018-09-12T02:38:56.068Z,12.30
2018-09-12T02:41:25.082Z,12.30
2018-09-12T02:43:55.204Z,12.20
2018-09-12T02:46:24.094Z,12.20
2018-09-12T02:48:53.524Z,12.30
2018-09-12T02:51:22.839Z,12.40
2018-09-12T02:53:51.971Z,12.40
2018-09-12T02:56:21.163Z,12.50
2018-09-12T03:01:41.524Z,12.50
2018-09-12T03:04:09.961Z,12.50
2018-09-12T03:06:39.289Z,12.60
2018-09-12T03:09:09.192Z,12.80
2018-09-12T03:11:38.279Z,12.90
2018-09-12T03:14:07.119Z,13.10
2018-09-12T03:16:35.757Z,13.30
2018-09-12T03:19:04.488Z,13.40
2018-09-12T03:21:33.778Z,13.60
2018-09-12T03:24:03.656Z,13.70
2018-09-12T03:26:32.396Z,13.80
2018-09-12T03:29:01.804Z,14.00
2018-09-12T03:31:30.543Z,14.10
2018-09-12T03:33:59.917Z,14.20
2018-09-12T03:36:28.943Z,14.30
2018-09-12T03:38:57.824Z,14.40
2018-09-12T03:41:27.199Z,14.40
2018-09-12T03:43:56.875Z,14.50
2018-09-12T03:46:25.980Z,14.50
2018-09-12T03:48:54.054Z,14.50
2018-09-12T03:51:22.679Z,14.50
2018-09-12T03:53:52.751Z,14.50
2018-09-12T03:56:21.937Z,14.50
2018-09-12T03:58:51.328Z,14.50
2018-09-12T04:01:22.324Z,14.50
2018-09-12T04:03:51.058Z,14.50
2018-09-12T04:06:20.208Z,14.40
2018-09-12T04:08:49.580Z,14.40
2018-09-12T04:11:18.322Z,14.40
2018-09-12T04:13:47.277Z,14.40
2018-09-12T04:16:16.067Z,14.40
2018-09-12T04:18:45.171Z,14.40
2018-09-12T04:21:14.187Z,14.40
2018-09-12T04:23:42.820Z,14.40
2018-09-12T04:26:11.459Z,14.30
2018-09-12T04:28:40.052Z,14.30
2018-09-12T04:31:09.042Z,14.30
2018-09-12T04:33:38.212Z,14.30
2018-09-12T04:36:07.084Z,14.20
2018-09-12T04:38:36.252Z,14.20
2018-09-12T04:41:06.057Z,14.20
2018-09-12T04:43:34.742Z,14.10
2018-09-12T04:46:05.157Z,14.00
2018-09-12T04:48:34.129Z,13.90
2018-09-12T04:51:02.919Z,13.80
2018-09-12T04:53:31.755Z,13.70
2018-09-12T04:56:01.044Z,13.70
2018-09-12T04:58:30.428Z,13.60
2018-09-12T05:01:00.043Z,13.60
2018-09-12T05:03:29.339Z,13.70
2018-09-12T05:05:58.149Z,13.80
2018-09-12T05:08:26.863Z,13.90
2018-09-12T05:10:57.577Z,14.00
2018-09-12T05:13:26.828Z,14.10
2018-09-12T05:15:55.374Z,14.10
2018-09-12T05:18:25.355Z,14.30
2018-09-12T05:20:54.151Z,14.40
2018-09-12T05:23:23.751Z,14.50
2018-09-12T05:25:52.302Z,14.60
2018-09-12T05:28:21.854Z,14.80
2018-09-12T05:30:51.385Z,14.90
2018-09-12T05:33:19.975Z,15.00
2018-09-12T05:35:49.628Z,15.20
2018-09-12T05:38:18.582Z,15.30
2018-09-12T05:40:48.088Z,15.40
2018-09-12T05:43:16.971Z,15.50
2018-09-12T05:45:45.347Z,15.70
2018-09-12T05:48:14.806Z,15.80
2018-09-12T05:50:43.881Z,15.90
2018-09-12T05:53:12.238Z,16.00
2018-09-12T05:55:41.325Z,16.10
2018-09-12T05:58:10.169Z,16.20
2018-09-12T06:00:38.831Z,16.40
2018-09-12T06:03:08.121Z,16.60
2018-09-12T06:05:36.832Z,16.70
2018-09-12T06:08:05.653Z,16.90
2018-09-12T06:10:34.623Z,17.00
2018-09-12T06:13:03.225Z,17.20
2018-09-12T06:15:32.274Z,17.30
2018-09-12T06:18:01.471Z,17.50
2018-09-12T06:20:31.267Z,17.60
2018-09-12T06:23:01.029Z,17.80
2018-09-12T06:25:30.433Z,17.90
2018-09-12T06:27:59.475Z,18.10
2018-09-12T06:30:29.101Z,18.30
2018-09-12T06:32:57.615Z,18.50
2018-09-12T06:35:26.605Z,18.60
2018-09-12T06:37:55.187Z,18.80
2018-09-12T06:40:24.179Z,18.90
2018-09-12T06:42:52.797Z,19.10
2018-09-12T06:45:22.278Z,19.20
2018-09-12T06:47:51.277Z,19.40
2018-09-12T06:50:20.215Z,19.60
2018-09-12T06:52:48.487Z,19.70
2018-09-12T06:55:17.400Z,19.90
2018-09-12T06:57:46.170Z,20.00
2018-09-12T07:00:15.632Z,20.20
2018-09-12T07:02:44.231Z,20.30
2018-09-12T07:05:13.642Z,20.40
2018-09-12T07:07:42.318Z,20.50
2018-09-12T07:10:11.368Z,20.70
2018-09-12T07:12:40.878Z,20.80
2018-09-12T07:15:09.785Z,20.90
2018-09-12T07:17:38.467Z,21.00
2018-09-12T07:20:08.876Z,21.20
2018-09-12T07:22:38.857Z,21.40
2018-09-12T07:25:08.237Z,21.60
2018-09-12T07:27:37.278Z,21.80
2018-09-12T07:30:07.105Z,21.90
2018-09-12T07:32:36.379Z,22.10
2018-09-12T07:35:05.055Z,22.20
2018-09-12T07:37:33.736Z,22.40
2018-09-12T07:40:03.100Z,22.50
2018-09-12T07:42:32.305Z,22.70
2018-09-12T07:45:01.081Z,22.80
2018-09-12T07:47:29.805Z,22.90
2018-09-12T07:49:59.089Z,23.00
2018-09-12T07:52:28.669Z,23.20
2018-09-12T07:54:58.055Z,23.30
2018-09-12T07:57:27.717Z,23.40
2018-09-12T07:59:57.219Z,23.40
2018-09-12T08:02:26.780Z,23.50
2018-09-12T08:04:56.472Z,23.60
2018-09-12T08:07:26.241Z,23.80
2018-09-12T08:09:55.789Z,23.80
2018-09-12T08:12:25.441Z,23.90
2018-09-12T08:14:53.928Z,24.00
2018-09-12T08:17:22.613Z,24.10
2018-09-12T08:19:51.733Z,24.30
2018-09-12T08:22:21.428Z,24.40
2018-09-12T08:24:50.768Z,24.40
2018-09-12T08:27:21.169Z,24.50
2018-09-12T08:29:50.440Z,24.60
2018-09-12T08:32:20.294Z,24.70
2018-09-12T08:34:49.568Z,24.80
2018-09-12T08:37:19.209Z,24.90
2018-09-12T08:39:49.640Z,25.00
2018-09-12T08:42:19.327Z,25.00
2018-09-12T08:44:50.223Z,25.00
2018-09-12T08:47:20.732Z,25.10
2018-09-12T08:49:50.650Z,25.10
2018-09-12T08:52:20.817Z,25.30
2018-09-12T08:54:50.252Z,25.40
2018-09-12T08:57:19.840Z,25.50
2018-09-12T08:59:49.318Z,25.70
2018-09-12T09:02:18.304Z,25.70
2018-09-12T09:04:48.780Z,25.80
2018-09-12T09:07:18.438Z,25.80
2018-09-12T09:09:47.839Z,25.90
2018-09-12T09:12:17.016Z,25.90
2018-09-12T09:14:46.790Z,26.10
2018-09-12T09:17:16.389Z,26.10
2018-09-12T09:19:45.612Z,26.30
2018-09-12T09:22:15.415Z,26.40
2018-09-12T09:24:45.081Z,26.40
2018-09-12T09:27:14.423Z,26.40
2018-09-12T09:29:44.184Z,26.40
2018-09-12T09:34:48.365Z,26.60
2018-09-12T09:37:17.800Z,26.80
2018-09-12T09:39:47.452Z,26.80
2018-09-12T09:42:16.640Z,27.00
2018-09-12T09:44:46.115Z,27.10
2018-09-12T09:47:15.764Z,27.20
2018-09-12T09:49:45.030Z,27.30
2018-09-12T09:52:14.618Z,27.30
2018-09-12T09:54:45.105Z,27.40
2018-09-12T09:57:14.634Z,27.40
2018-09-12T09:59:44.050Z,27.40
2018-09-12T10:02:18.376Z,27.40
2018-09-12T10:04:54.052Z,27.50
2018-09-12T10:07:28.855Z,27.50
2018-09-12T10:10:07.328Z,27.70
2018-09-12T10:12:37.149Z,27.70
2018-09-12T10:17:59.672Z,27.80
2018-09-12T10:20:28.867Z,27.80
2018-09-12T10:22:58.461Z,28.00
2018-09-12T10:25:28.147Z,28.10
2018-09-12T10:27:57.431Z,28.30
2018-09-12T10:30:27.965Z,28.30
2018-09-12T10:32:57.702Z,28.40
2018-09-12T10:35:27.672Z,28.50
2018-09-12T10:37:57.227Z,28.60
2018-09-12T10:40:26.962Z,28.70
2018-09-12T10:42:56.657Z,28.80
2018-09-12T10:45:26.315Z,28.90
2018-09-12T10:47:56.191Z,29.00
2018-09-12T10:50:26.332Z,29.10
2018-09-12T10:52:56.026Z,29.10
2018-09-12T10:55:29.152Z,29.10
2018-09-12T10:57:59.568Z,29.10
2018-09-12T11:00:29.662Z,29.30
2018-09-12T11:02:59.131Z,29.30
2018-09-12T11:05:29.328Z,29.40
2018-09-12T11:07:59.124Z,29.50
2018-09-12T11:10:29.597Z,29.60
2018-09-12T11:12:59.321Z,29.70
2018-09-12T11:15:28.236Z,29.70
2018-09-12T11:17:58.166Z,29.60
2018-09-12T11:20:27.685Z,29.60
2018-09-12T11:22:57.717Z,29.50
2018-09-12T11:25:27.163Z,29.50
2018-09-12T11:27:56.945Z,29.50
2018-09-12T11:30:26.651Z,29.50
2018-09-12T11:32:56.697Z,29.50
2018-09-12T11:35:26.306Z,29.40
2018-09-12T11:37:57.506Z,29.40
2018-09-12T11:40:27.209Z,29.50
2018-09-12T11:42:57.106Z,29.60
2018-09-12T11:45:26.659Z,29.90
2018-09-12T11:47:56.678Z,30.00
2018-09-12T11:50:26.333Z,30.00
2018-09-12T11:52:56.998Z,30.20
2018-09-12T11:55:26.759Z,30.30
2018-09-12T11:57:56.071Z,30.30
2018-09-12T12:00:26.525Z,30.30
2018-09-12T12:02:56.770Z,30.40
2018-09-12T12:05:26.959Z,30.40
2018-09-12T12:07:57.723Z,30.20
2018-09-12T12:10:27.746Z,30.30
2018-09-12T12:12:57.640Z,30.30
2018-09-12T12:15:27.186Z,30.30
2018-09-12T12:17:57.066Z,30.40
2018-09-12T12:20:26.635Z,30.50
2018-09-12T12:22:56.851Z,30.40
2018-09-12T12:25:28.344Z,30.20
2018-09-12T12:27:58.380Z,29.90
2018-09-12T12:30:28.398Z,29.70
2018-09-12T12:32:58.498Z,29.60
2018-09-12T12:35:28.393Z,29.60
2018-09-12T12:37:58.760Z,29.50
2018-09-12T12:40:29.109Z,29.40
2018-09-12T12:42:59.627Z,29.30
2018-09-12T12:45:29.345Z,29.10
2018-09-12T12:47:59.084Z,29.00
2018-09-12T12:50:29.462Z,28.90
2018-09-12T12:52:58.382Z,28.80
2018-09-12T12:55:27.862Z,28.60
2018-09-12T12:57:57.434Z,28.50
2018-09-12T13:03:14.053Z,28.20
2018-09-12T13:05:43.423Z,28.00
2018-09-12T13:08:13.616Z,28.00
2018-09-12T13:10:44.411Z,27.90
2018-09-12T13:13:14.224Z,27.80
2018-09-12T13:15:43.670Z,27.70
2018-09-12T13:18:13.141Z,27.70
2018-09-12T13:20:42.545Z,27.60
2018-09-12T13:23:12.398Z,27.60
2018-09-12T13:25:42.034Z,27.50
2018-09-12T13:28:11.550Z,27.50
2018-09-12T13:30:41.150Z,27.50
2018-09-12T13:33:11.856Z,27.40
2018-09-12T13:35:40.557Z,27.30
2018-09-12T13:38:09.957Z,27.30
2018-09-12T13:40:39.324Z,27.30
2018-09-12T13:43:08.885Z,27.30
2018-09-12T13:45:39.227Z,27.30
2018-09-12T13:48:09.594Z,27.30
2018-09-12T13:50:38.688Z,27.40
2018-09-12T13:53:08.264Z,27.50
2018-09-12T13:55:37.702Z,28.00
2018-09-12T13:58:07.907Z,28.80
2018-09-12T14:00:38.117Z,29.40
2018-09-12T14:03:07.431Z,29.80
2018-09-12T14:05:37.152Z,30.10
2018-09-12T14:08:06.701Z,30.20
2018-09-12T14:10:37.104Z,30.00
2018-09-12T14:13:06.715Z,29.60
2018-09-12T14:15:36.570Z,29.10
2018-09-12T14:18:06.828Z,28.70
2018-09-12T14:20:36.332Z,28.30
2018-09-12T14:23:06.545Z,27.90
2018-09-12T14:25:36.867Z,27.70
2018-09-12T14:28:06.501Z,27.40
2018-09-12T14:30:36.325Z,27.20
2018-09-12T14:33:05.885Z,27.10
2018-09-12T14:35:35.659Z,27.00
2018-09-12T14:38:06.877Z,26.90
2018-09-12T14:40:37.125Z,26.80
2018-09-12T14:43:06.766Z,26.60
2018-09-12T14:45:38.626Z,26.50
2018-09-12T14:48:08.165Z,26.40
2018-09-12T14:50:38.195Z,26.30
2018-09-12T14:53:09.168Z,26.20
2018-09-12T14:55:39.193Z,26.20
2018-09-12T14:58:08.317Z,26.10
2018-09-12T15:00:38.095Z,26.00
2018-09-12T15:03:08.824Z,26.00
2018-09-12T15:05:38.626Z,25.90
2018-09-12T15:08:08.488Z,25.80
2018-09-12T15:10:38.951Z,25.80
2018-09-12T15:13:10.727Z,25.80
2018-09-12T15:15:39.898Z,25.70
2018-09-12T15:18:09.782Z,25.70
2018-09-12T15:20:39.143Z,25.60
2018-09-12T15:23:08.972Z,25.60
2018-09-12T15:25:38.224Z,25.60
2018-09-12T15:28:08.344Z,25.50
2018-09-12T15:30:37.851Z,25.50
2018-09-12T15:33:08.048Z,25.40
2018-09-12T15:35:37.351Z,25.40
2018-09-12T15:38:07.040Z,25.30
2018-09-12T15:40:36.796Z,25.30
2018-09-12T15:43:06.860Z,25.20
2018-09-12T15:45:35.971Z,25.20
2018-09-12T15:48:06.336Z,25.10
2018-09-12T15:50:35.945Z,25.10
2018-09-12T15:53:06.114Z,25.00
2018-09-12T15:55:36.747Z,25.00
2018-09-12T15:58:07.104Z,24.90
2018-09-12T16:00:38.937Z,24.90
2018-09-12T16:03:08.911Z,24.90
2018-09-12T16:05:38.663Z,24.80
2018-09-12T16:08:08.649Z,24.80
2018-09-12T16:10:38.490Z,24.80
2018-09-12T16:13:08.236Z,24.80
2018-09-12T16:15:37.110Z,24.70
2018-09-12T16:18:06.643Z,24.70
2018-09-12T16:20:36.405Z,24.60
2018-09-12T16:23:06.452Z,24.50
2018-09-12T16:25:36.408Z,24.40
2018-09-12T16:28:07.110Z,24.30
2018-09-12T16:30:36.526Z,24.20
2018-09-12T16:33:06.689Z,24.10
2018-09-12T16:35:36.146Z,24.00
2018-09-12T16:38:06.365Z,24.00
2018-09-12T16:40:35.773Z,23.90
2018-09-12T16:43:04.988Z,23.80
2018-09-12T16:45:34.437Z,23.70
2018-09-12T16:48:03.502Z,23.60
2018-09-12T16:50:33.454Z,23.50
2018-09-12T16:53:03.525Z,23.40
2018-09-12T16:55:32.663Z,23.30
2018-09-12T16:58:02.600Z,23.20
2018-09-12T17:00:32.633Z,23.10
2018-09-12T17:03:02.302Z,23.00
2018-09-12T17:05:32.015Z,22.90
2018-09-12T17:08:01.495Z,22.80
2018-09-12T17:10:30.763Z,22.60
2018-09-12T17:13:01.309Z,22.50
2018-09-12T17:15:31.002Z,22.30
2018-09-12T17:18:01.364Z,22.20
2018-09-12T17:20:30.750Z,22.00
2018-09-12T17:25:52.188Z,21.70
2018-09-12T17:28:23.238Z,21.60
2018-09-12T17:30:52.885Z,21.50
2018-09-12T17:33:23.876Z,21.30
2018-09-12T17:35:55.462Z,21.20
2018-09-12T17:38:25.182Z,21.00
2018-09-12T17:40:55.344Z,20.90
2018-09-12T17:43:24.627Z,20.80
2018-09-12T17:45:55.447Z,20.70
2018-09-12T17:48:24.989Z,20.60
2018-09-12T17:50:53.862Z,20.40
2018-09-12T17:53:23.920Z,20.30
2018-09-12T17:55:54.583Z,20.20
2018-09-12T17:58:24.582Z,20.10
2018-09-12T18:00:54.651Z,20.00
2018-09-12T18:03:24.261Z,19.90
2018-09-12T18:05:55.508Z,19.80
2018-09-12T18:08:25.475Z,19.80
2018-09-12T18:10:54.865Z,19.70
2018-09-12T18:13:24.545Z,19.70
2018-09-12T18:15:54.269Z,19.70
2018-09-12T18:18:23.813Z,19.60
2018-09-12T18:20:52.940Z,19.60
2018-09-12T18:23:23.221Z,19.60
2018-09-12T18:25:52.736Z,19.50
2018-09-12T18:28:22.711Z,19.50
2018-09-12T18:30:52.892Z,19.40
2018-09-12T18:33:23.749Z,19.30
2018-09-12T18:35:54.270Z,19.30
2018-09-12T18:38:24.664Z,19.20
2018-09-12T18:40:59.636Z,19.10
2018-09-12T18:43:29.033Z,19.10
2018-09-12T18:45:59.743Z,19.10
2018-09-12T18:48:30.310Z,19.10
2018-09-12T18:51:04.151Z,19.00
2018-09-12T18:53:33.470Z,18.90
2018-09-12T18:56:04.392Z,18.90
2018-09-12T18:58:35.311Z,18.80
2018-09-12T19:01:05.594Z,18.80
2018-09-12T19:03:35.790Z,18.70
2018-09-12T19:09:36.033Z,18.60
2018-09-12T19:12:06.756Z,18.50
2018-09-12T19:14:42.928Z,18.40
2018-09-12T19:17:12.430Z,18.40
2018-09-12T19:35:57.533Z,17.80
2018-09-12T19:38:34.494Z,17.70
2018-09-12T19:44:11.587Z,17.40
2018-09-12T19:46:40.240Z,17.20
2018-09-12T19:54:40.081Z,17.10
2018-09-12T19:57:08.998Z,17.20
2018-09-12T19:59:37.744Z,17.30
2018-09-12T20:02:06.598Z,17.40
2018-09-12T20:04:35.583Z,17.60
2018-09-12T20:07:04.107Z,17.70
2018-09-12T20:09:32.754Z,17.90
2018-09-12T20:12:01.815Z,18.10
2018-09-12T20:14:30.943Z,18.30
2018-09-12T20:17:00.201Z,18.30
2018-09-12T20:19:29.440Z,18.50
2018-09-12T20:21:58.357Z,18.50
2018-09-12T20:24:27.872Z,18.50
2018-09-12T20:26:56.675Z,18.50
2018-09-12T20:29:26.050Z,18.50
2018-09-12T20:31:55.026Z,18.60
2018-09-12T20:34:24.402Z,18.60
2018-09-12T20:36:53.444Z,18.50
2018-09-12T20:39:22.530Z,18.40
2018-09-12T20:41:51.670Z,18.40
2018-09-12T20:44:20.728Z,18.30
2018-09-12T20:46:48.771Z,18.30
2018-09-12T20:49:17.559Z,18.30
2018-09-12T20:51:46.259Z,18.20
2018-09-12T20:54:16.428Z,18.20
2018-09-12T20:56:47.200Z,18.10
2018-09-12T20:59:16.509Z,18.10
2018-09-12T21:01:45.037Z,18.00
2018-09-12T21:04:14.578Z,18.00
2018-09-12T21:06:43.166Z,17.90
2018-09-12T21:09:13.475Z,17.80
2018-09-12T21:11:42.440Z,17.80
2018-09-12T21:14:11.431Z,17.80
2018-09-12T21:16:41.174Z,17.70
2018-09-12T21:19:10.034Z,17.60
2018-09-12T21:21:38.838Z,17.50
2018-09-12T21:24:07.811Z,17.50
2018-09-12T21:26:36.344Z,17.50
2018-09-12T21:29:05.201Z,17.50
2018-09-12T21:31:34.128Z,17.40
2018-09-12T21:34:03.196Z,17.40
2018-09-12T21:36:32.123Z,17.30
2018-09-12T21:39:01.415Z,17.30
2018-09-12T21:41:30.487Z,17.30
2018-09-12T21:43:59.801Z,17.30
2018-09-12T21:46:29.548Z,17.20
2018-09-12T21:48:58.887Z,17.20
2018-09-12T21:51:28.819Z,17.10
2018-09-12T21:53:58.127Z,17.10
2018-09-12T21:56:28.130Z,17.00
2018-09-12T21:58:56.994Z,17.00
2018-09-12T22:01:26.292Z,16.90
2018-09-12T22:03:55.425Z,16.90
2018-09-12T22:06:24.526Z,16.80
2018-09-12T22:08:53.116Z,16.70
2018-09-12T22:11:22.233Z,16.70
2018-09-12T22:13:52.442Z,16.70
2018-09-12T22:16:21.740Z,16.70
2018-09-12T22:18:51.896Z,16.70
2018-09-12T22:21:21.047Z,16.70
2018-09-12T22:23:50.286Z,16.80
2018-09-12T22:26:19.361Z,16.80
2018-09-12T22:28:48.506Z,16.70
2018-09-12T22:31:17.327Z,16.70
2018-09-12T22:33:46.272Z,16.70
2018-09-12T22:36:15.751Z,16.80
2018-09-12T22:38:45.409Z,16.80
2018-09-12T22:41:14.295Z,16.80
2018-09-12T22:43:42.930Z,16.70
2018-09-12T22:46:12.524Z,16.70
2018-09-12T22:48:41.671Z,16.70
2018-09-12T22:51:10.633Z,16.70
2018-09-12T22:53:39.355Z,16.60
2018-09-12T22:56:08.359Z,16.60
2018-09-12T22:58:37.381Z,16.60
2018-09-12T23:01:05.949Z,16.60
2018-09-12T23:03:34.726Z,16.60
2018-09-12T23:06:03.800Z,16.50
2018-09-12T23:08:32.948Z,16.50
2018-09-12T23:11:02.182Z,16.50
2018-09-12T23:13:30.970Z,16.50
2018-09-12T23:16:00.097Z,16.50
2018-09-12T23:18:28.095Z,16.50
2018-09-12T23:20:57.239Z,16.50
2018-09-12T23:23:27.197Z,16.50
2018-09-12T23:25:56.018Z,16.50
2018-09-12T23:28:24.984Z,16.60
2018-09-12T23:30:53.855Z,16.60
2018-09-12T23:33:22.824Z,16.60
2018-09-12T23:35:51.970Z,16.60
2018-09-12T23:38:20.659Z,16.60
2018-09-12T23:40:49.529Z,16.60
2018-09-12T23:43:18.507Z,16.60
2018-09-12T23:45:47.629Z,16.60
2018-09-12T23:48:16.701Z,16.60
2018-09-12T23:50:45.268Z,16.60
2018-09-12T23:53:14.743Z,16.50
2018-09-12T23:55:43.628Z,16.50
2018-09-12T23:58:12.558Z,16.50
